Terminal Aerodrome Forecast
Issued by NWS

Current Version | Previous Version | Graphics & Text | Print | Product List | Glossary On
Versions: 1 2 3 4 5 6 7 8 9 10 11 12 13 14 15 16 17 18 19
000
FTUS41 KILN 221731 AAA
TAFLCK
TAF AMD
KLCK 221731Z 2218/2318 03010KT P6SM SCT040
     FM222300 04006KT P6SM SKC
     FM230500 06004KT P6SM FEW250
     FM231500 11008KT P6SM FEW250=

USA.gov is the U.S. government's official web portal to all federal, state and local government web resources and services.